x

West Sea Otter (46204) Wave Buoy

1:00am - Sat 23rd Jul 2016 All times are PDT. -7 hours from GMT.

  • Sig Wave height 4.3ft
  • Peak Period 5s
  • Wind
    16mph, 18mph gusts
  • Sea Temp 60°f
  • 空気 Temp 58°f
  • Sea Pressure 1022.9mb
  • West Sea Otter
  • West Sea Otter

More Historic Weather Station data

Upgrade to MSW Pro to gain access to the past 30 days of data for over 8000 Wavebouys and Weather Stations around the globe.

Join Pro

Comparision Forecast

View Surf forecast
   
Sat 07/23 1:00am 4.5ft 5s 16 18 mph 1022.9mb 60f 58f
12:00am 4ft 5s 18 22 mph 1022.9mb 60f 58f
Fri 07/22 11:00pm 3.5ft 15s 18 20 mph 1023.1mb 60f 58f
10:00pm 3.5ft 4s 18 22 mph 1023.3mb 60f 58f
9:00pm 3.5ft 4s 18 20 mph 1023.3mb 60f 58f
8:00pm 3.5ft 16s 18 20 mph 1023.3mb 60f 58f
7:00pm 3ft 15s 16 18 mph 1023.1mb 60f 58f
6:00pm 3.5ft 8s 16 20 mph 1023.3mb 61f 58f
5:00pm 3ft 15s 18 20 mph 1023.2mb 61f 58f
4:00pm 3ft 9s 13 16 mph 1023.5mb 61f 58f
3:00pm 3ft 8s 11 13 mph 1023.4mb 61f 58f
2:00pm 3ft 8s 9 11 mph 1023.4mb 60f 57f
1:00pm 2.5ft 7s 11 13 mph 1023.3mb 60f 56f
12:00pm 2.5ft 8s 9 11 mph 1023mb 60f 57f
11:00am 2.5ft 8s 4 9 mph 1022.9mb 60f 56f
10:00am 2.5ft 8s 9 11 mph 1022.5mb 60f 56f
9:00am 2.5ft 8s 9 11 mph 1022.1mb 60f 58f
8:00am 2.5ft 8s 7 9 mph 1021.6mb 60f 58f
7:00am 2.5ft 8s 4 7 mph 1021.3mb 60f 58f
6:00am 2.5ft 8s 2 4 mph 1021mb 60f 58f
5:00am 2.5ft 8s 4
mph
1020.6mb 60f 57f
4:00am 2.5ft 8s 9 11 mph 1020.2mb 60f 56f
3:00am 3ft 8s 7 9 mph 1020.2mb 60f 57f
2:00am 3ft 8s 9 11 mph 1020mb 60f 58f
1:00am 3.5ft 8s 7 9 mph 1020.3mb 60f 58f
12:00am 3ft 8s 9 13 mph 1020.1mb 60f 59f
Thu 07/21 11:00pm 3ft 8s 7 9 mph 1020.3mb 60f 59f
10:00pm 3ft 8s 11 13 mph 1020.3mb 60f 59f
9:00pm 2.5ft 8s 7 9 mph 1020.2mb 61f 60f
8:00pm 3ft 8s 9 11 mph 1020.1mb 61f 60f
7:00pm 3ft 9s 11 13 mph 1020.1mb 61f 60f
6:00pm 2.5ft 9s 9 11 mph 1020.3mb 61f 60f
5:00pm 3ft 9s 11
mph
1020.4mb 61f 60f
4:00pm 2.5ft 8s 9 11 mph 1020.6mb 62f 60f
3:00pm 3ft 8s 7 9 mph 1020.7mb 61f 60f
2:00pm 3.5ft 8s 7 9 mph 1020.6mb 61f 59f
1:00pm 3.5ft 8s 7
mph
1020.6mb 61f 58f
12:00pm 3.5ft 8s 7
mph
1020.7mb 61f 59f
11:00am 3.5ft 8s 4 7 mph 1020.8mb 60f 59f
10:00am 3ft 8s 4 7 mph 1020.8mb 60f 59f
9:00am 2.5ft 8s 7
mph
1020.7mb 60f 58f
8:00am 3ft 8s 4
mph
1020.3mb 59f 58f
7:00am 3ft 8s 2
mph
1020.2mb 59f 59f
6:00am 2.5ft 8s 2 4 mph 1020.1mb 59f 58f
5:00am 3ft 9s  -  2 mph 1019.8mb 59f 58f
4:00am 3ft 8s 4
mph
1020mb 59f 58f
3:00am 3.5ft 9s 2 4 mph 1019.9mb 60f 58f
2:00am 3.5ft 8s 2 4 mph 1020mb 59f 58f
1:00am 3ft 8s 4
mph
1020.1mb 59f 58f
12:00am 3ft 8s 4
mph
1020.2mb 59f 59f
Wed 07/20 11:00pm 3ft 8s 4
mph
1020.4mb 60f 59f
10:00pm 2.5ft 8s 2 4 mph 1020.4mb 60f 59f
9:00pm 2.5ft 8s 4
mph
1020.3mb 60f 58f
8:00pm 3.5ft 8s 7
mph
1020.7mb 60f 57f
7:00pm 3.5ft 10s 9 11 mph 1020.9mb 60f 58f
6:00pm 3ft 9s 9 11 mph 1021mb 60f 59f
5:00pm 3ft 10s 9
mph
1020.9mb 60f 60f
4:00pm 3.5ft 10s 13
mph
1020.6mb 60f 59f
3:00pm 3ft 8s 9 13 mph 1020.5mb 60f 59f
2:00pm 3.5ft 9s 13 16 mph 1020.2mb 60f 59f
1:00pm 3.5ft 10s 11 13 mph 1020.2mb 60f 59f
12:00pm 3.5ft 10s 13 16 mph 1019.9mb 60f 59f
11:00am 3.5ft 10s 11 13 mph 1019.9mb 59f 59f
10:00am 3ft 10s 7 9 mph 1019.9mb 59f 58f
9:00am 3ft 8s 7 9 mph 1019.6mb 59f 58f
8:00am 3ft 10s 7
mph
1019.6mb 59f 59f
7:00am 3ft 8s 7 9 mph 1019.3mb 59f 59f
6:00am 3ft 8s 9
mph
1019.1mb 59f 59f
5:00am 3ft 8s 7 9 mph 1019mb 59f 59f
4:00am 3.5ft 8s 7
mph
1018.9mb 59f 59f
3:00am 3ft 10s 9 13 mph 1018.7mb 59f 58f
2:00am 3.5ft 11s 9
mph
1018.9mb 59f 58f
1:00am 3.5ft 8s 11 13 mph 1018.9mb 59f 58f
12:00am 3.5ft 7s 13
mph
1018.8mb 59f 58f
Tue 07/19 11:00pm 3.5ft 8s 11 13 mph 1018.9mb 59f 58f
10:00pm 3.5ft 11s 9 11 mph 1019mb 59f 58f
9:00pm 3ft 7s 11 13 mph 1018.6mb 59f 58f
8:00pm 3.5ft 8s 9 11 mph 1018.8mb 59f 58f
7:00pm 3ft 7s 11 13 mph 1019mb 59f 59f
6:00pm 2.5ft 8s 13 16 mph 1018.9mb 59f 59f
5:00pm 2.5ft 17s 9 11 mph 1019.1mb 59f 60f
4:00pm 2.5ft 17s 11 13 mph 1019.1mb 59f 59f
3:00pm 2.5ft 16s 11 13 mph 1019.2mb 60f 59f
2:00pm 2.5ft 16s 11 13 mph 1018.9mb 60f 59f
1:00pm 2.5ft 16s 11 13 mph 1018.6mb 60f 59f
12:00pm 2.5ft 16s 13 16 mph 1018.3mb 60f 60f
11:00am 2.5ft 17s 13 18 mph 1018.1mb 60f 59f
10:00am 2.5ft 17s 13 16 mph 1017.9mb 60f 59f